createdAt,value
2022-11-13T00:03:32.837Z,51.80
2022-11-13T00:08:55.240Z,52.50
2022-11-13T00:14:15.599Z,49.80
2022-11-13T00:19:36.486Z,46.40
2022-11-13T00:24:56.630Z,48.60
2022-11-13T00:30:19.515Z,47.20
2022-11-13T00:35:40.197Z,46.47
2022-11-13T00:41:01.252Z,43.73
2022-11-13T00:46:21.326Z,40.90
2022-11-13T00:51:41.800Z,40.83
2022-11-13T00:57:02.180Z,41.27
2022-11-13T01:02:22.602Z,43.10
2022-11-13T01:07:42.870Z,37.63
2022-11-13T01:13:03.184Z,36.93
2022-11-13T01:18:23.655Z,36.83
2022-11-13T01:23:44.678Z,41.23
2022-11-13T01:29:05.137Z,39.97
2022-11-13T01:34:25.276Z,38.77
2022-11-13T01:39:45.720Z,41.13
2022-11-13T01:45:43.883Z,39.57
2022-11-13T01:51:16.583Z,39.00
2022-11-13T01:56:37.166Z,37.20
2022-11-13T02:01:58.671Z,32.67
2022-11-13T02:07:21.749Z,32.20
2022-11-13T02:12:49.905Z,31.30
2022-11-13T02:18:11.461Z,31.47
2022-11-13T02:23:43.992Z,34.77
2022-11-13T02:29:04.222Z,30.20
2022-11-13T02:34:24.703Z,28.77
2022-11-13T02:39:45.365Z,30.87
2022-11-13T02:45:07.104Z,39.13
2022-11-13T02:50:27.821Z,29.47
2022-11-13T02:55:47.922Z,35.53
2022-11-13T03:01:09.795Z,31.03
2022-11-13T03:06:29.921Z,30.07
2022-11-13T03:11:50.354Z,32.07
2022-11-13T03:17:10.774Z,33.97
2022-11-13T03:22:31.101Z,31.20
2022-11-13T03:27:51.348Z,28.00
2022-11-13T03:33:11.785Z,27.57
2022-11-13T03:38:32.470Z,28.20
2022-11-13T03:43:52.639Z,29.90
2022-11-13T03:49:13.087Z,28.13
2022-11-13T03:54:33.444Z,28.50
2022-11-13T03:59:53.929Z,24.67
2022-11-13T04:05:17.508Z,17.83
2022-11-13T04:10:42.313Z,18.63
2022-11-13T04:16:02.380Z,18.47
2022-11-13T04:21:22.498Z,15.47
2022-11-13T04:26:42.974Z,16.47
2022-11-13T04:32:03.185Z,15.57
2022-11-13T04:37:23.643Z,15.00
2022-11-13T04:42:49.882Z,18.53
2022-11-13T04:48:10.185Z,16.33
2022-11-13T04:53:30.558Z,16.50
2022-11-13T04:58:51.000Z,19.97
2022-11-13T05:04:13.833Z,19.97
2022-11-13T05:09:34.036Z,19.17
2022-11-13T05:14:54.199Z,20.77
2022-11-13T05:20:14.500Z,19.57
2022-11-13T05:25:34.675Z,18.27
2022-11-13T05:31:09.776Z,18.97
2022-11-13T05:36:29.916Z,19.50
2022-11-13T05:41:50.005Z,17.83
2022-11-13T05:47:10.330Z,17.13
2022-11-13T05:52:30.690Z,20.10
2022-11-13T05:57:50.877Z,18.67
2022-11-13T06:03:11.110Z,15.23
2022-11-13T06:08:31.684Z,17.70
2022-11-13T06:13:53.228Z,16.13
2022-11-13T06:19:13.388Z,15.27
2022-11-13T06:24:33.656Z,15.17
2022-11-13T06:29:54.011Z,17.27
2022-11-13T06:35:14.132Z,15.17
2022-11-13T06:40:34.502Z,17.37
2022-11-13T06:45:55.757Z,19.17
2022-11-13T06:51:21.853Z,16.53
2022-11-13T06:56:45.431Z,15.87
2022-11-13T07:02:06.605Z,16.07
2022-11-13T07:07:26.607Z,16.93
2022-11-13T07:12:49.439Z,18.10
2022-11-13T07:18:13.723Z,19.57
2022-11-13T07:23:36.990Z,20.83
2022-11-13T07:28:57.274Z,24.90
2022-11-13T07:34:17.666Z,22.20
2022-11-13T07:39:37.790Z,18.93
2022-11-13T07:44:58.225Z,18.50
2022-11-13T07:50:18.664Z,19.30
2022-11-13T07:55:38.814Z,20.73
2022-11-13T08:01:04.247Z,21.17
2022-11-13T08:06:27.564Z,18.40
2022-11-13T08:11:47.630Z,18.53
2022-11-13T08:17:07.901Z,19.87
2022-11-13T08:22:28.095Z,22.30
2022-11-13T08:27:48.478Z,21.50
2022-11-13T08:33:08.669Z,22.10
2022-11-13T08:38:29.202Z,20.92
2022-11-13T08:43:49.407Z,19.80
2022-11-13T08:49:09.736Z,19.48
2022-11-13T08:54:30.019Z,19.88
2022-11-13T08:59:50.110Z,20.08
2022-11-13T09:05:10.884Z,21.17
2022-11-13T09:10:31.145Z,18.77
2022-11-13T09:15:51.536Z,13.77
2022-11-13T09:21:11.941Z,10.35
2022-11-13T09:26:32.347Z,11.10
2022-11-13T09:31:52.490Z,9.90
2022-11-13T09:37:14.971Z,10.82
2022-11-13T09:42:40.334Z,11.55
2022-11-13T09:48:29.528Z,12.82
2022-11-13T09:53:50.211Z,13.10
2022-11-13T09:59:24.807Z,12.27
2022-11-13T10:05:28.915Z,12.43
2022-11-13T10:10:58.116Z,12.45
2022-11-13T10:16:32.070Z,11.80
2022-11-13T10:22:32.704Z,12.25
2022-11-13T10:27:57.045Z,11.55
2022-11-13T10:33:20.245Z,12.77
2022-11-13T10:38:50.082Z,12.55
2022-11-13T10:44:26.214Z,12.95
2022-11-13T10:49:46.242Z,14.10
2022-11-13T10:55:34.688Z,13.13
2022-11-13T11:00:54.674Z,14.15
2022-11-13T11:06:14.963Z,16.23
2022-11-13T11:11:54.231Z,17.02
2022-11-13T11:17:18.529Z,16.33
2022-11-13T11:22:40.788Z,15.68
2022-11-13T11:28:07.407Z,14.55
2022-11-13T11:33:52.525Z,14.45
2022-11-13T11:39:30.207Z,14.48
2022-11-13T11:45:01.509Z,15.07
2022-11-13T11:50:47.770Z,14.27
2022-11-13T11:56:20.077Z,14.48
2022-11-13T12:02:04.708Z,13.77
2022-11-13T12:07:34.082Z,14.40
2022-11-13T12:13:31.617Z,13.70
2022-11-13T12:19:24.083Z,12.30
2022-11-13T12:25:20.376Z,11.95
2022-11-13T12:31:00.094Z,12.15
2022-11-13T12:36:21.440Z,12.35
2022-11-13T12:42:00.875Z,12.20
2022-11-13T12:47:21.385Z,12.00
2022-11-13T12:52:41.551Z,12.68
2022-11-13T12:58:40.465Z,11.75
2022-11-13T13:04:26.368Z,12.25
2022-11-13T13:10:07.162Z,12.45
2022-11-13T13:15:37.853Z,13.40
2022-11-13T13:21:03.615Z,12.55
2022-11-13T13:26:26.619Z,13.05
2022-11-13T13:31:57.014Z,13.43
2022-11-13T13:37:43.204Z,13.23
2022-11-13T13:43:12.343Z,12.57
2022-11-13T13:48:36.952Z,13.35
2022-11-13T13:54:00.573Z,13.75
2022-11-13T13:59:29.020Z,13.85
2022-11-13T14:04:54.633Z,12.88
2022-11-13T14:10:24.045Z,12.80
2022-11-13T14:15:44.635Z,12.73
2022-11-13T14:21:25.033Z,13.25
2022-11-13T14:26:46.118Z,13.15
2022-11-13T14:32:13.317Z,13.57
2022-11-13T14:37:39.345Z,14.43
2022-11-13T14:43:07.664Z,14.32
2022-11-13T14:48:33.579Z,13.68
2022-11-13T14:55:08.097Z,14.98
2022-11-13T15:00:28.881Z,14.95
2022-11-13T15:05:49.697Z,14.23
2022-11-13T15:11:14.418Z,14.90
2022-11-13T15:16:35.973Z,15.40
2022-11-13T15:22:25.372Z,13.85
2022-11-13T15:27:41.835Z,21.88
2022-11-13T15:33:12.413Z,18.88
2022-11-13T15:38:32.763Z,15.95
2022-11-13T15:43:55.655Z,21.48
2022-11-13T15:49:15.780Z,19.38
2022-11-13T15:54:38.703Z,13.77
2022-11-13T15:59:59.154Z,15.30
2022-11-13T16:05:19.960Z,13.55
2022-11-13T16:10:40.372Z,14.90
2022-11-13T16:16:01.130Z,15.48
2022-11-13T16:21:22.289Z,14.90
2022-11-13T16:26:50.709Z,15.43
2022-11-13T16:32:16.653Z,17.15
2022-11-13T16:37:36.745Z,16.73
2022-11-13T16:42:57.762Z,17.92
2022-11-13T16:48:18.512Z,18.27
2022-11-13T16:53:38.670Z,15.70
2022-11-13T16:58:59.488Z,32.28
2022-11-13T17:04:20.038Z,21.85
2022-11-13T17:09:41.837Z,17.40
2022-11-13T17:15:01.816Z,18.95
2022-11-13T17:20:22.390Z,18.52
2022-11-13T17:25:42.806Z,21.02
2022-11-13T17:31:04.767Z,20.42
2022-11-13T17:36:25.055Z,21.90
2022-11-13T17:41:45.362Z,21.75
2022-11-13T17:47:05.502Z,22.00
2022-11-13T17:52:25.680Z,25.63
2022-11-13T17:57:45.848Z,50.50
2022-11-13T18:03:06.269Z,28.08
2022-11-13T18:08:26.501Z,31.05
2022-11-13T18:13:48.223Z,30.85
2022-11-13T18:19:09.291Z,24.90
2022-11-13T18:24:29.396Z,24.33
2022-11-13T18:29:49.442Z,27.23
2022-11-13T18:35:09.938Z,25.20
2022-11-13T18:40:29.822Z,25.38
2022-11-13T18:46:00.996Z,24.17
2022-11-13T18:51:23.654Z,26.30
2022-11-13T18:56:44.067Z,32.58
2022-11-13T19:02:04.498Z,32.05
2022-11-13T19:07:24.847Z,28.92
2022-11-13T19:12:44.885Z,34.45
2022-11-13T19:18:06.578Z,30.13
2022-11-13T19:23:26.519Z,32.20
2022-11-13T19:28:48.692Z,34.85
2022-11-13T19:34:08.773Z,33.35
2022-11-13T19:39:29.181Z,31.55
2022-11-13T19:44:49.228Z,34.17
2022-11-13T19:50:10.318Z,40.22
2022-11-13T19:55:30.861Z,38.42
2022-11-13T20:00:52.843Z,43.60
2022-11-13T20:06:16.417Z,42.92
2022-11-13T20:11:36.795Z,46.65
2022-11-13T20:16:57.076Z,45.25
2022-11-13T20:22:17.278Z,44.47
2022-11-13T20:27:37.798Z,50.25
2022-11-13T20:32:58.298Z,48.35
2022-11-13T20:38:18.589Z,47.88
2022-11-13T20:43:38.970Z,56.42
2022-11-13T20:48:59.294Z,57.20
2022-11-13T20:54:19.230Z,51.78
2022-11-13T20:59:39.512Z,52.67
2022-11-13T21:04:59.745Z,55.50
2022-11-13T21:10:20.006Z,54.15
2022-11-13T21:15:40.182Z,57.70
2022-11-13T21:21:08.512Z,54.15
2022-11-13T21:26:29.039Z,54.60
2022-11-13T21:31:48.992Z,57.28
2022-11-13T21:37:10.946Z,58.95
2022-11-13T21:42:30.965Z,61.95
2022-11-13T21:47:52.742Z,61.95
2022-11-13T21:53:12.976Z,58.00
2022-11-13T21:58:36.124Z,51.65
2022-11-13T22:03:56.221Z,58.25
2022-11-13T22:09:22.430Z,51.92
2022-11-13T22:14:42.483Z,49.63
2022-11-13T22:20:02.772Z,55.17
2022-11-13T22:25:23.019Z,50.28
2022-11-13T22:30:46.126Z,55.78
2022-11-13T22:36:09.854Z,58.72
2022-11-13T22:41:32.327Z,49.33
2022-11-13T22:46:52.270Z,50.35
2022-11-13T22:52:12.513Z,45.47
2022-11-13T22:57:32.771Z,45.95
2022-11-13T23:02:53.141Z,46.90
2022-11-13T23:08:13.361Z,45.45
2022-11-13T23:13:34.071Z,41.63
2022-11-13T23:18:56.108Z,41.60
2022-11-13T23:24:16.320Z,37.53
2022-11-13T23:29:36.649Z,37.55
2022-11-13T23:34:59.513Z,44.70
2022-11-13T23:40:20.197Z,43.03
2022-11-13T23:45:40.402Z,39.20
2022-11-13T23:51:01.678Z,40.10
2022-11-13T23:56:21.810Z,39.20
